sensor_id;sensor_type;location;lat;lon;timestamp;P1;durP1;ratioP1;P2;durP2;ratioP2
18505;SDS011;9382;53.242;10.438;2024-01-30T01:35:36;11.83;;;7.30;;
18505;SDS011;9382;53.242;10.438;2024-01-30T02:02:39;12.87;;;7.40;;
18505;SDS011;9382;53.242;10.438;2024-01-30T02:05:52;12.63;;;7.27;;
18505;SDS011;9382;53.242;10.438;2024-01-30T02:08:18;10.80;;;7.57;;
18505;SDS011;9382;53.242;10.438;2024-01-30T02:10:49;12.33;;;8.07;;
18505;SDS011;9382;53.242;10.438;2024-01-30T02:13:17;12.17;;;8.50;;
18505;SDS011;9382;53.242;10.438;2024-01-30T02:15:48;12.97;;;8.10;;
18505;SDS011;9382;53.242;10.438;2024-01-30T02:18:15;13.43;;;8.53;;
18505;SDS011;9382;53.242;10.438;2024-01-30T02:20:48;13.30;;;8.70;;
18505;SDS011;9382;53.242;10.438;2024-01-30T02:23:16;15.80;;;9.07;;
18505;SDS011;9382;53.242;10.438;2024-01-30T02:25:45;12.03;;;8.03;;
18505;SDS011;9382;53.242;10.438;2024-01-30T02:28:16;11.40;;;8.30;;
18505;SDS011;9382;53.242;10.438;2024-01-30T02:30:46;11.97;;;7.93;;
18505;SDS011;9382;53.242;10.438;2024-01-30T02:33:17;11.27;;;7.80;;
18505;SDS011;9382;53.242;10.438;2024-01-30T02:35:54;10.83;;;7.77;;
18505;SDS011;9382;53.242;10.438;2024-01-30T02:38:22;10.40;;;7.80;;
18505;SDS011;9382;53.242;10.438;2024-01-30T02:40:51;11.73;;;8.20;;
18505;SDS011;9382;53.242;10.438;2024-01-30T02:43:22;12.80;;;8.50;;
18505;SDS011;9382;53.242;10.438;2024-01-30T03:27:07;12.47;;;8.83;;
18505;SDS011;9382;53.242;10.438;2024-01-30T03:34:06;15.10;;;8.63;;
18505;SDS011;9382;53.242;10.438;2024-01-30T04:21:49;14.37;;;10.17;;
18505;SDS011;9382;53.242;10.438;2024-01-30T04:25:23;15.47;;;8.90;;
18505;SDS011;9382;53.242;10.438;2024-01-30T04:28:18;14.60;;;9.00;;
18505;SDS011;9382;53.242;10.438;2024-01-30T04:42:15;14.57;;;9.30;;
18505;SDS011;9382;53.242;10.438;2024-01-30T04:49:37;14.67;;;9.90;;
18505;SDS011;9382;53.242;10.438;2024-01-30T04:56:49;17.33;;;10.67;;
18505;SDS011;9382;53.242;10.438;2024-01-30T05:23:59;14.20;;;10.00;;
18505;SDS011;9382;53.242;10.438;2024-01-30T05:31:00;16.20;;;9.77;;
18505;SDS011;9382;53.242;10.438;2024-01-30T05:58:07;21.50;;;10.53;;
18505;SDS011;9382;53.242;10.438;2024-01-30T06:27:16;21.17;;;11.00;;
18505;SDS011;9382;53.242;10.438;2024-01-30T07:41:48;20.10;;;12.20;;
18505;SDS011;9382;53.242;10.438;2024-01-30T07:57:54;19.77;;;11.60;;
18505;SDS011;9382;53.242;10.438;2024-01-30T08:00:30;16.63;;;10.90;;
18505;SDS011;9382;53.242;10.438;2024-01-30T08:03:11;18.37;;;10.73;;
18505;SDS011;9382;53.242;10.438;2024-01-30T08:05:57;18.77;;;11.30;;
18505;SDS011;9382;53.242;10.438;2024-01-30T08:08:46;18.13;;;11.30;;
18505;SDS011;9382;53.242;10.438;2024-01-30T08:11:22;17.83;;;11.13;;
18505;SDS011;9382;53.242;10.438;2024-01-30T08:14:26;15.63;;;10.67;;
18505;SDS011;9382;53.242;10.438;2024-01-30T08:17:10;17.33;;;10.93;;
18505;SDS011;9382;53.242;10.438;2024-01-30T08:29:54;17.60;;;10.50;;
18505;SDS011;9382;53.242;10.438;2024-01-30T08:33:08;15.90;;;10.30;;
18505;SDS011;9382;53.242;10.438;2024-01-30T08:36:44;18.27;;;10.47;;
18505;SDS011;9382;53.242;10.438;2024-01-30T08:40:00;18.47;;;10.23;;
18505;SDS011;9382;53.242;10.438;2024-01-30T08:50:27;19.23;;;11.17;;
18505;SDS011;9382;53.242;10.438;2024-01-30T08:54:02;16.77;;;10.77;;
18505;SDS011;9382;53.242;10.438;2024-01-30T09:00:09;19.10;;;11.20;;
18505;SDS011;9382;53.242;10.438;2024-01-30T09:12:30;15.77;;;9.90;;
18505;SDS011;9382;53.242;10.438;2024-01-30T09:15:22;18.10;;;9.80;;
18505;SDS011;9382;53.242;10.438;2024-01-30T09:17:49;17.50;;;10.10;;
18505;SDS011;9382;53.242;10.438;2024-01-30T09:20:22;13.90;;;9.30;;
18505;SDS011;9382;53.242;10.438;2024-01-30T09:27:16;14.37;;;9.50;;
18505;SDS011;9382;53.242;10.438;2024-01-30T09:38:22;14.87;;;9.07;;
18505;SDS011;9382;53.242;10.438;2024-01-30T09:47:09;11.77;;;7.87;;
18505;SDS011;9382;53.242;10.438;2024-01-30T09:50:02;12.93;;;8.93;;
18505;SDS011;9382;53.242;10.438;2024-01-30T09:52:31;16.80;;;8.50;;
18505;SDS011;9382;53.242;10.438;2024-01-30T09:55:00;13.00;;;8.33;;
18505;SDS011;9382;53.242;10.438;2024-01-30T09:57:30;14.90;;;8.57;;
18505;SDS011;9382;53.242;10.438;2024-01-30T09:59:59;13.23;;;8.33;;
18505;SDS011;9382;53.242;10.438;2024-01-30T10:05:35;12.80;;;8.57;;
18505;SDS011;9382;53.242;10.438;2024-01-30T10:08:15;15.53;;;8.27;;
18505;SDS011;9382;53.242;10.438;2024-01-30T10:10:53;12.23;;;8.57;;
18505;SDS011;9382;53.242;10.438;2024-01-30T10:13:26;10.47;;;7.93;;
18505;SDS011;9382;53.242;10.438;2024-01-30T10:15:53;11.90;;;7.80;;
18505;SDS011;9382;53.242;10.438;2024-01-30T10:18:23;14.13;;;8.67;;
18505;SDS011;9382;53.242;10.438;2024-01-30T10:20:55;11.43;;;8.00;;
18505;SDS011;9382;53.242;10.438;2024-01-30T10:23:21;11.73;;;7.77;;
18505;SDS011;9382;53.242;10.438;2024-01-30T10:25:49;14.07;;;7.73;;
18505;SDS011;9382;53.242;10.438;2024-01-30T10:28:27;12.00;;;7.53;;
18505;SDS011;9382;53.242;10.438;2024-01-30T10:30:57;11.73;;;7.60;;
18505;SDS011;9382;53.242;10.438;2024-01-30T10:33:40;16.63;;;8.50;;
18505;SDS011;9382;53.242;10.438;2024-01-30T10:36:13;11.30;;;7.70;;
18505;SDS011;9382;53.242;10.438;2024-01-30T10:38:48;12.43;;;7.37;;
18505;SDS011;9382;53.242;10.438;2024-01-30T10:41:26;11.90;;;7.90;;
18505;SDS011;9382;53.242;10.438;2024-01-30T10:43:58;10.83;;;7.20;;
18505;SDS011;9382;53.242;10.438;2024-01-30T10:46:30;13.10;;;7.80;;
18505;SDS011;9382;53.242;10.438;2024-01-30T10:49:00;12.30;;;7.57;;
18505;SDS011;9382;53.242;10.438;2024-01-30T10:51:29;11.60;;;7.80;;
18505;SDS011;9382;53.242;10.438;2024-01-30T10:54:02;11.87;;;8.00;;
18505;SDS011;9382;53.242;10.438;2024-01-30T10:56:38;13.03;;;7.47;;
18505;SDS011;9382;53.242;10.438;2024-01-30T10:59:17;11.87;;;7.53;;
18505;SDS011;9382;53.242;10.438;2024-01-30T11:02:04;9.17;;;6.87;;
18505;SDS011;9382;53.242;10.438;2024-01-30T11:04:41;12.03;;;7.07;;
18505;SDS011;9382;53.242;10.438;2024-01-30T11:07:23;10.30;;;6.70;;
18505;SDS011;9382;53.242;10.438;2024-01-30T11:09:59;10.23;;;6.90;;
18505;SDS011;9382;53.242;10.438;2024-01-30T11:12:30;10.03;;;6.97;;
18505;SDS011;9382;53.242;10.438;2024-01-30T11:15:05;10.03;;;7.10;;
18505;SDS011;9382;53.242;10.438;2024-01-30T11:17:45;11.50;;;6.63;;
18505;SDS011;9382;53.242;10.438;2024-01-30T11:23:25;11.97;;;6.87;;
18505;SDS011;9382;53.242;10.438;2024-01-30T11:25:53;11.33;;;6.63;;
18505;SDS011;9382;53.242;10.438;2024-01-30T11:28:22;10.07;;;6.30;;
18505;SDS011;9382;53.242;10.438;2024-01-30T11:31:04;9.70;;;6.73;;
18505;SDS011;9382;53.242;10.438;2024-01-30T11:33:45;9.17;;;6.67;;
18505;SDS011;9382;53.242;10.438;2024-01-30T11:36:16;10.00;;;6.50;;
18505;SDS011;9382;53.242;10.438;2024-01-30T11:39:14;10.37;;;6.10;;
18505;SDS011;9382;53.242;10.438;2024-01-30T11:41:52;8.10;;;6.17;;
18505;SDS011;9382;53.242;10.438;2024-01-30T11:44:23;8.60;;;5.70;;
18505;SDS011;9382;53.242;10.438;2024-01-30T11:46:51;7.63;;;5.73;;
18505;SDS011;9382;53.242;10.438;2024-01-30T11:49:23;9.97;;;6.10;;
18505;SDS011;9382;53.242;10.438;2024-01-30T11:51:52;7.17;;;5.50;;
18505;SDS011;9382;53.242;10.438;2024-01-30T11:54:23;9.40;;;5.93;;
18505;SDS011;9382;53.242;10.438;2024-01-30T11:57:03;10.77;;;5.67;;
18505;SDS011;9382;53.242;10.438;2024-01-30T11:59:39;8.03;;;5.67;;
18505;SDS011;9382;53.242;10.438;2024-01-30T12:02:19;7.97;;;5.87;;
18505;SDS011;9382;53.242;10.438;2024-01-30T12:04:53;9.70;;;5.33;;
18505;SDS011;9382;53.242;10.438;2024-01-30T12:07:20;7.13;;;5.47;;
18505;SDS011;9382;53.242;10.438;2024-01-30T12:09:58;6.50;;;4.80;;
18505;SDS011;9382;53.242;10.438;2024-01-30T12:12:34;7.80;;;5.30;;
18505;SDS011;9382;53.242;10.438;2024-01-30T12:15:06;8.47;;;5.27;;
18505;SDS011;9382;53.242;10.438;2024-01-30T12:17:36;8.10;;;5.13;;
18505;SDS011;9382;53.242;10.438;2024-01-30T12:20:08;7.27;;;5.23;;
18505;SDS011;9382;53.242;10.438;2024-01-30T12:22:50;8.87;;;5.20;;
18505;SDS011;9382;53.242;10.438;2024-01-30T12:25:20;8.07;;;5.30;;
18505;SDS011;9382;53.242;10.438;2024-01-30T12:27:52;8.83;;;5.40;;
18505;SDS011;9382;53.242;10.438;2024-01-30T12:33:15;7.77;;;5.27;;
18505;SDS011;9382;53.242;10.438;2024-01-30T12:36:08;8.70;;;5.13;;
18505;SDS011;9382;53.242;10.438;2024-01-30T12:38:43;7.23;;;5.60;;
18505;SDS011;9382;53.242;10.438;2024-01-30T12:41:16;7.60;;;5.47;;
18505;SDS011;9382;53.242;10.438;2024-01-30T12:43:49;6.70;;;5.30;;
18505;SDS011;9382;53.242;10.438;2024-01-30T12:46:16;8.50;;;5.47;;
18505;SDS011;9382;53.242;10.438;2024-01-30T12:48:48;9.03;;;5.40;;
18505;SDS011;9382;53.242;10.438;2024-01-30T12:51:15;10.20;;;5.57;;
18505;SDS011;9382;53.242;10.438;2024-01-30T12:53:42;7.50;;;5.57;;
18505;SDS011;9382;53.242;10.438;2024-01-30T12:56:18;7.27;;;5.37;;
18505;SDS011;9382;53.242;10.438;2024-01-30T12:58:51;8.50;;;5.60;;
18505;SDS011;9382;53.242;10.438;2024-01-30T13:01:21;8.20;;;5.40;;
18505;SDS011;9382;53.242;10.438;2024-01-30T13:04:11;8.80;;;5.77;;
18505;SDS011;9382;53.242;10.438;2024-01-30T13:06:45;6.47;;;5.43;;
18505;SDS011;9382;53.242;10.438;2024-01-30T13:09:18;8.40;;;5.53;;
18505;SDS011;9382;53.242;10.438;2024-01-30T13:12:21;10.43;;;5.73;;
18505;SDS011;9382;53.242;10.438;2024-01-30T13:14:59;8.27;;;5.60;;
18505;SDS011;9382;53.242;10.438;2024-01-30T13:21:04;8.37;;;5.60;;
18505;SDS011;9382;53.242;10.438;2024-01-30T13:36:50;8.80;;;5.97;;
18505;SDS011;9382;53.242;10.438;2024-01-30T13:49:32;7.63;;;5.63;;
18505;SDS011;9382;53.242;10.438;2024-01-30T13:52:06;9.30;;;5.83;;
18505;SDS011;9382;53.242;10.438;2024-01-30T13:57:43;8.27;;;5.63;;
18505;SDS011;9382;53.242;10.438;2024-01-30T14:00:38;8.53;;;5.23;;
18505;SDS011;9382;53.242;10.438;2024-01-30T14:06:37;12.27;;;5.37;;
18505;SDS011;9382;53.242;10.438;2024-01-30T14:09:23;9.20;;;5.37;;
18505;SDS011;9382;53.242;10.438;2024-01-30T14:11:52;7.60;;;5.43;;
18505;SDS011;9382;53.242;10.438;2024-01-30T14:15:00;8.37;;;5.40;;
18505;SDS011;9382;53.242;10.438;2024-01-30T14:20:58;7.43;;;5.20;;
18505;SDS011;9382;53.242;10.438;2024-01-30T14:23:58;7.63;;;5.20;;
18505;SDS011;9382;53.242;10.438;2024-01-30T14:26:36;8.93;;;5.40;;
18505;SDS011;9382;53.242;10.438;2024-01-30T14:29:14;10.03;;;5.13;;
18505;SDS011;9382;53.242;10.438;2024-01-30T14:31:59;8.07;;;5.60;;
18505;SDS011;9382;53.242;10.438;2024-01-30T14:50:48;8.43;;;5.13;;
18505;SDS011;9382;53.242;10.438;2024-01-30T14:53:31;9.67;;;5.40;;
18505;SDS011;9382;53.242;10.438;2024-01-30T14:56:05;11.53;;;6.23;;
18505;SDS011;9382;53.242;10.438;2024-01-30T14:58:35;9.63;;;6.10;;
18505;SDS011;9382;53.242;10.438;2024-01-30T15:01:07;8.13;;;6.00;;
18505;SDS011;9382;53.242;10.438;2024-01-30T15:03:37;11.70;;;6.63;;
18505;SDS011;9382;53.242;10.438;2024-01-30T15:06:06;8.43;;;5.90;;
18505;SDS011;9382;53.242;10.438;2024-01-30T15:08:34;10.90;;;6.17;;
18505;SDS011;9382;53.242;10.438;2024-01-30T15:11:08;9.77;;;5.83;;
18505;SDS011;9382;53.242;10.438;2024-01-30T15:13:35;10.97;;;5.70;;
18505;SDS011;9382;53.242;10.438;2024-01-30T15:16:11;8.73;;;5.67;;
18505;SDS011;9382;53.242;10.438;2024-01-30T15:18:59;9.23;;;5.50;;
18505;SDS011;9382;53.242;10.438;2024-01-30T15:21:34;8.90;;;5.47;;
18505;SDS011;9382;53.242;10.438;2024-01-30T15:24:04;10.00;;;6.10;;
18505;SDS011;9382;53.242;10.438;2024-01-30T15:26:43;10.17;;;6.37;;
18505;SDS011;9382;53.242;10.438;2024-01-30T15:29:20;10.70;;;6.00;;
18505;SDS011;9382;53.242;10.438;2024-01-30T15:31:58;8.80;;;5.27;;
18505;SDS011;9382;53.242;10.438;2024-01-30T15:34:36;10.43;;;5.87;;
18505;SDS011;9382;53.242;10.438;2024-01-30T15:37:06;8.37;;;5.97;;
18505;SDS011;9382;53.242;10.438;2024-01-30T15:39:33;11.37;;;6.43;;
18505;SDS011;9382;53.242;10.438;2024-01-30T15:42:21;12.03;;;5.90;;
18505;SDS011;9382;53.242;10.438;2024-01-30T15:44:59;9.83;;;6.00;;
18505;SDS011;9382;53.242;10.438;2024-01-30T15:48:03;9.93;;;6.00;;
18505;SDS011;9382;53.242;10.438;2024-01-30T15:50:35;11.37;;;6.03;;
18505;SDS011;9382;53.242;10.438;2024-01-30T15:53:25;12.00;;;6.83;;
18505;SDS011;9382;53.242;10.438;2024-01-30T15:56:06;10.50;;;6.57;;
18505;SDS011;9382;53.242;10.438;2024-01-30T15:58:38;11.87;;;6.27;;
18505;SDS011;9382;53.242;10.438;2024-01-30T16:01:05;10.47;;;6.30;;
18505;SDS011;9382;53.242;10.438;2024-01-30T16:03:40;13.87;;;6.40;;
18505;SDS011;9382;53.242;10.438;2024-01-30T16:06:24;10.47;;;6.50;;
18505;SDS011;9382;53.242;10.438;2024-01-30T16:08:54;11.63;;;7.03;;
18505;SDS011;9382;53.242;10.438;2024-01-30T16:11:23;10.87;;;6.90;;
18505;SDS011;9382;53.242;10.438;2024-01-30T16:14:02;14.33;;;6.63;;
18505;SDS011;9382;53.242;10.438;2024-01-30T16:16:34;11.37;;;6.90;;
18505;SDS011;9382;53.242;10.438;2024-01-30T16:19:39;12.77;;;7.07;;
18505;SDS011;9382;53.242;10.438;2024-01-30T16:22:45;10.10;;;6.90;;
18505;SDS011;9382;53.242;10.438;2024-01-30T16:25:30;10.27;;;6.60;;
18505;SDS011;9382;53.242;10.438;2024-01-30T16:28:00;11.73;;;7.17;;
18505;SDS011;9382;53.242;10.438;2024-01-30T16:30:49;17.27;;;7.60;;
18505;SDS011;9382;53.242;10.438;2024-01-30T16:36:28;12.57;;;6.93;;
18505;SDS011;9382;53.242;10.438;2024-01-30T17:20:44;15.03;;;8.47;;
18505;SDS011;9382;53.242;10.438;2024-01-30T17:26:48;13.60;;;9.17;;
18505;SDS011;9382;53.242;10.438;2024-01-30T17:30:10;13.20;;;8.40;;
18505;SDS011;9382;53.242;10.438;2024-01-30T17:32:38;13.33;;;7.80;;
18505;SDS011;9382;53.242;10.438;2024-01-30T17:35:19;20.73;;;12.83;;
18505;SDS011;9382;53.242;10.438;2024-01-30T17:38:32;16.50;;;7.70;;
18505;SDS011;9382;53.242;10.438;2024-01-30T17:41:42;12.17;;;7.30;;
18505;SDS011;9382;53.242;10.438;2024-01-30T17:43:59;12.23;;;7.37;;
18505;SDS011;9382;53.242;10.438;2024-01-30T17:46:28;9.77;;;6.70;;
18505;SDS011;9382;53.242;10.438;2024-01-30T17:51:44;12.83;;;7.67;;
18505;SDS011;9382;53.242;10.438;2024-01-30T17:54:13;11.47;;;7.40;;
18505;SDS011;9382;53.242;10.438;2024-01-30T17:56:52;10.43;;;6.57;;
18505;SDS011;9382;53.242;10.438;2024-01-30T17:59:24;14.13;;;8.83;;
18505;SDS011;9382;53.242;10.438;2024-01-30T18:01:56;12.03;;;7.47;;
18505;SDS011;9382;53.242;10.438;2024-01-30T18:08:02;11.63;;;7.03;;
18505;SDS011;9382;53.242;10.438;2024-01-30T18:13:19;9.63;;;6.60;;
18505;SDS011;9382;53.242;10.438;2024-01-30T18:16:03;10.67;;;6.70;;
18505;SDS011;9382;53.242;10.438;2024-01-30T18:21:24;10.47;;;6.00;;
18505;SDS011;9382;53.242;10.438;2024-01-30T18:23:54;8.93;;;6.10;;
18505;SDS011;9382;53.242;10.438;2024-01-30T18:26:27;9.77;;;6.20;;
18505;SDS011;9382;53.242;10.438;2024-01-30T18:29:19;8.40;;;5.73;;
18505;SDS011;9382;53.242;10.438;2024-01-30T18:31:49;8.00;;;5.93;;
18505;SDS011;9382;53.242;10.438;2024-01-30T18:34:22;13.50;;;6.20;;
18505;SDS011;9382;53.242;10.438;2024-01-30T18:37:08;9.03;;;6.00;;
18505;SDS011;9382;53.242;10.438;2024-01-30T18:42:55;8.83;;;5.93;;
18505;SDS011;9382;53.242;10.438;2024-01-30T18:48:36;8.93;;;6.00;;
18505;SDS011;9382;53.242;10.438;2024-01-30T18:51:18;11.20;;;6.00;;
18505;SDS011;9382;53.242;10.438;2024-01-30T18:54:01;9.00;;;6.23;;
18505;SDS011;9382;53.242;10.438;2024-01-30T18:56:37;7.87;;;5.60;;
18505;SDS011;9382;53.242;10.438;2024-01-30T18:59:04;11.13;;;6.77;;
18505;SDS011;9382;53.242;10.438;2024-01-30T19:01:34;8.67;;;6.30;;
18505;SDS011;9382;53.242;10.438;2024-01-30T19:04:03;8.93;;;6.40;;
18505;SDS011;9382;53.242;10.438;2024-01-30T19:06:32;10.87;;;6.70;;
18505;SDS011;9382;53.242;10.438;2024-01-30T19:08:58;9.90;;;6.60;;
18505;SDS011;9382;53.242;10.438;2024-01-30T19:11:25;10.50;;;6.97;;
18505;SDS011;9382;53.242;10.438;2024-01-30T19:13:57;9.17;;;6.47;;
18505;SDS011;9382;53.242;10.438;2024-01-30T19:16:25;14.03;;;6.90;;
18505;SDS011;9382;53.242;10.438;2024-01-30T19:18:52;8.57;;;6.40;;
18505;SDS011;9382;53.242;10.438;2024-01-30T19:21:22;9.53;;;6.63;;
18505;SDS011;9382;53.242;10.438;2024-01-30T19:23:50;10.93;;;6.97;;
18505;SDS011;9382;53.242;10.438;2024-01-30T19:26:21;11.47;;;6.17;;
18505;SDS011;9382;53.242;10.438;2024-01-30T19:28:49;9.07;;;5.77;;
18505;SDS011;9382;53.242;10.438;2024-01-30T19:31:15;8.97;;;5.43;;
18505;SDS011;9382;53.242;10.438;2024-01-30T19:33:42;9.87;;;4.83;;
18505;SDS011;9382;53.242;10.438;2024-01-30T19:36:09;6.90;;;4.53;;
18505;SDS011;9382;53.242;10.438;2024-01-30T19:38:44;5.73;;;4.43;;
18505;SDS011;9382;53.242;10.438;2024-01-30T19:41:21;4.03;;;3.57;;
18505;SDS011;9382;53.242;10.438;2024-01-30T19:43:48;7.33;;;3.73;;
18505;SDS011;9382;53.242;10.438;2024-01-30T19:46:18;4.27;;;3.43;;
18505;SDS011;9382;53.242;10.438;2024-01-30T19:48:58;3.60;;;3.30;;
18505;SDS011;9382;53.242;10.438;2024-01-30T19:51:30;4.63;;;2.97;;
18505;SDS011;9382;53.242;10.438;2024-01-30T19:53:56;4.07;;;3.00;;
18505;SDS011;9382;53.242;10.438;2024-01-30T19:56:32;2.87;;;2.60;;
18505;SDS011;9382;53.242;10.438;2024-01-30T19:58:59;3.77;;;2.80;;
18505;SDS011;9382;53.242;10.438;2024-01-30T20:01:32;3.27;;;2.43;;
18505;SDS011;9382;53.242;10.438;2024-01-30T20:04:03;3.90;;;2.93;;
18505;SDS011;9382;53.242;10.438;2024-01-30T20:06:31;3.03;;;2.73;;
18505;SDS011;9382;53.242;10.438;2024-01-30T20:08:58;3.27;;;2.70;;
18505;SDS011;9382;53.242;10.438;2024-01-30T20:11:24;3.43;;;3.07;;
18505;SDS011;9382;53.242;10.438;2024-01-30T20:14:03;2.60;;;2.40;;
18505;SDS011;9382;53.242;10.438;2024-01-30T20:16:39;3.13;;;2.80;;
18505;SDS011;9382;53.242;10.438;2024-01-30T20:19:08;3.17;;;2.80;;
18505;SDS011;9382;53.242;10.438;2024-01-30T20:21:40;3.23;;;2.90;;
18505;SDS011;9382;53.242;10.438;2024-01-30T20:24:08;3.10;;;2.80;;
18505;SDS011;9382;53.242;10.438;2024-01-30T20:26:38;3.13;;;2.83;;
18505;SDS011;9382;53.242;10.438;2024-01-30T20:29:09;4.37;;;3.27;;
18505;SDS011;9382;53.242;10.438;2024-01-30T20:31:36;3.63;;;3.10;;
18505;SDS011;9382;53.242;10.438;2024-01-30T20:34:15;3.60;;;3.30;;
18505;SDS011;9382;53.242;10.438;2024-01-30T20:36:46;7.07;;;3.47;;
18505;SDS011;9382;53.242;10.438;2024-01-30T20:39:23;3.50;;;3.17;;
18505;SDS011;9382;53.242;10.438;2024-01-30T20:41:50;4.77;;;3.63;;
18505;SDS011;9382;53.242;10.438;2024-01-30T20:44:27;5.33;;;4.27;;
18505;SDS011;9382;53.242;10.438;2024-01-30T20:46:57;4.70;;;3.80;;
18505;SDS011;9382;53.242;10.438;2024-01-30T20:49:27;6.87;;;3.90;;
18505;SDS011;9382;53.242;10.438;2024-01-30T20:51:56;4.80;;;3.90;;
18505;SDS011;9382;53.242;10.438;2024-01-30T20:54:26;5.07;;;4.03;;
18505;SDS011;9382;53.242;10.438;2024-01-30T20:57:00;5.60;;;4.03;;
18505;SDS011;9382;53.242;10.438;2024-01-30T20:59:28;4.53;;;3.90;;
18505;SDS011;9382;53.242;10.438;2024-01-30T21:01:58;4.23;;;3.80;;
18505;SDS011;9382;53.242;10.438;2024-01-30T21:04:39;5.33;;;4.00;;
18505;SDS011;9382;53.242;10.438;2024-01-30T21:07:08;4.17;;;3.73;;
18505;SDS011;9382;53.242;10.438;2024-01-30T21:09:36;5.53;;;4.10;;
18505;SDS011;9382;53.242;10.438;2024-01-30T21:12:05;4.87;;;3.90;;
18505;SDS011;9382;53.242;10.438;2024-01-30T21:14:34;5.77;;;4.20;;
18505;SDS011;9382;53.242;10.438;2024-01-30T21:17:01;4.67;;;3.80;;
18505;SDS011;9382;53.242;10.438;2024-01-30T21:19:30;5.33;;;4.03;;
18505;SDS011;9382;53.242;10.438;2024-01-30T21:22:00;7.03;;;3.90;;
18505;SDS011;9382;53.242;10.438;2024-01-30T21:24:29;5.97;;;4.40;;
18505;SDS011;9382;53.242;10.438;2024-01-30T21:27:04;5.07;;;3.70;;
18505;SDS011;9382;53.242;10.438;2024-01-30T21:29:30;5.77;;;4.00;;
18505;SDS011;9382;53.242;10.438;2024-01-30T21:32:02;5.23;;;3.57;;
18505;SDS011;9382;53.242;10.438;2024-01-30T21:34:30;5.80;;;3.90;;
18505;SDS011;9382;53.242;10.438;2024-01-30T21:36:57;4.57;;;3.40;;
18505;SDS011;9382;53.242;10.438;2024-01-30T21:39:24;4.70;;;3.80;;
18505;SDS011;9382;53.242;10.438;2024-01-30T21:41:51;4.00;;;3.53;;
18505;SDS011;9382;53.242;10.438;2024-01-30T21:44:21;6.80;;;3.90;;
18505;SDS011;9382;53.242;10.438;2024-01-30T21:49:38;5.03;;;4.00;;
18505;SDS011;9382;53.242;10.438;2024-01-30T21:52:08;5.73;;;3.87;;
18505;SDS011;9382;53.242;10.438;2024-01-30T21:54:50;5.47;;;3.87;;
18505;SDS011;9382;53.242;10.438;2024-01-30T21:57:17;5.30;;;4.00;;
18505;SDS011;9382;53.242;10.438;2024-01-30T21:59:45;6.87;;;4.23;;
18505;SDS011;9382;53.242;10.438;2024-01-30T22:02:15;7.30;;;4.70;;
18505;SDS011;9382;53.242;10.438;2024-01-30T22:04:51;7.37;;;4.70;;
18505;SDS011;9382;53.242;10.438;2024-01-30T22:07:17;7.17;;;4.40;;
18505;SDS011;9382;53.242;10.438;2024-01-30T22:09:47;6.77;;;4.40;;
18505;SDS011;9382;53.242;10.438;2024-01-30T22:12:27;4.57;;;3.80;;
18505;SDS011;9382;53.242;10.438;2024-01-30T22:15:16;6.67;;;4.33;;
18505;SDS011;9382;53.242;10.438;2024-01-30T22:18:28;6.53;;;4.63;;
18505;SDS011;9382;53.242;10.438;2024-01-30T22:21:00;7.27;;;4.83;;
18505;SDS011;9382;53.242;10.438;2024-01-30T22:23:37;10.03;;;4.50;;
18505;SDS011;9382;53.242;10.438;2024-01-30T22:26:07;6.53;;;4.60;;
18505;SDS011;9382;53.242;10.438;2024-01-30T22:28:34;7.37;;;4.77;;
18505;SDS011;9382;53.242;10.438;2024-01-30T22:31:07;6.20;;;4.30;;
18505;SDS011;9382;53.242;10.438;2024-01-30T22:33:38;7.53;;;4.57;;
18505;SDS011;9382;53.242;10.438;2024-01-30T22:36:07;7.53;;;3.83;;
18505;SDS011;9382;53.242;10.438;2024-01-30T22:38:36;5.50;;;4.10;;
18505;SDS011;9382;53.242;10.438;2024-01-30T22:41:03;5.57;;;4.10;;
18505;SDS011;9382;53.242;10.438;2024-01-30T22:43:32;3.70;;;3.30;;
18505;SDS011;9382;53.242;10.438;2024-01-30T22:46:00;3.50;;;3.20;;
18505;SDS011;9382;53.242;10.438;2024-01-30T22:48:30;2.80;;;2.60;;
18505;SDS011;9382;53.242;10.438;2024-01-30T22:50:58;2.67;;;2.47;;
18505;SDS011;9382;53.242;10.438;2024-01-30T22:53:32;2.83;;;2.60;;
18505;SDS011;9382;53.242;10.438;2024-01-30T22:56:01;2.83;;;2.17;;
18505;SDS011;9382;53.242;10.438;2024-01-30T22:58:39;2.53;;;2.33;;
18505;SDS011;9382;53.242;10.438;2024-01-30T23:01:16;1.93;;;1.83;;
18505;SDS011;9382;53.242;10.438;2024-01-30T23:03:43;2.73;;;2.07;;
18505;SDS011;9382;53.242;10.438;2024-01-30T23:06:12;1.90;;;1.80;;
18505;SDS011;9382;53.242;10.438;2024-01-30T23:08:41;2.03;;;1.77;;
18505;SDS011;9382;53.242;10.438;2024-01-30T23:11:47;2.27;;;1.73;;
18505;SDS011;9382;53.242;10.438;2024-01-30T23:14:18;1.80;;;1.70;;
18505;SDS011;9382;53.242;10.438;2024-01-30T23:22:30;1.63;;;1.40;;
18505;SDS011;9382;53.242;10.438;2024-01-30T23:25:00;1.60;;;1.50;;
18505;SDS011;9382;53.242;10.438;2024-01-30T23:27:26;1.87;;;1.57;;
18505;SDS011;9382;53.242;10.438;2024-01-30T23:29:55;1.77;;;1.43;;
18505;SDS011;9382;53.242;10.438;2024-01-30T23:32:22;1.50;;;1.50;;
18505;SDS011;9382;53.242;10.438;2024-01-30T23:34:48;1.60;;;1.50;;
18505;SDS011;9382;53.242;10.438;2024-01-30T23:37:25;1.60;;;1.50;;
18505;SDS011;9382;53.242;10.438;2024-01-30T23:39:54;2.17;;;1.50;;
18505;SDS011;9382;53.242;10.438;2024-01-30T23:42:20;1.53;;;1.50;;
18505;SDS011;9382;53.242;10.438;2024-01-30T23:45:00;1.80;;;1.40;;
18505;SDS011;9382;53.242;10.438;2024-01-30T23:47:28;2.73;;;1.87;;
18505;SDS011;9382;53.242;10.438;2024-01-30T23:49:55;1.57;;;1.47;;
18505;SDS011;9382;53.242;10.438;2024-01-30T23:52:26;1.70;;;1.60;;
18505;SDS011;9382;53.242;10.438;2024-01-30T23:54:55;1.73;;;1.63;;
18505;SDS011;9382;53.242;10.438;2024-01-30T23:57:22;2.43;;;1.50;;
18505;SDS011;9382;53.242;10.438;2024-01-30T23:59:49;1.73;;;1.63;;
